sensor_id;sensor_type;location;lat;lon;timestamp;temperature;humidity
69084;SHT31;56185;48.526;9.044;2023-03-18T00:01:03;9.91;68.04
69084;SHT31;56185;48.526;9.044;2023-03-18T00:03:31;9.91;68.05
69084;SHT31;56185;48.526;9.044;2023-03-18T00:06:08;9.80;68.14
69084;SHT31;56185;48.526;9.044;2023-03-18T00:08:34;9.81;68.57
69084;SHT31;56185;48.526;9.044;2023-03-18T00:10:59;9.84;68.28
69084;SHT31;56185;48.526;9.044;2023-03-18T00:13:25;9.84;68.04
69084;SHT31;56185;48.526;9.044;2023-03-18T00:15:51;9.81;68.04
69084;SHT31;56185;48.526;9.044;2023-03-18T00:18:16;9.80;67.89
69084;SHT31;56185;48.526;9.044;2023-03-18T00:20:42;9.84;67.95
69084;SHT31;56185;48.526;9.044;2023-03-18T00:23:07;9.84;68.22
69084;SHT31;56185;48.526;9.044;2023-03-18T00:25:33;9.87;68.18
69084;SHT31;56185;48.526;9.044;2023-03-18T00:27:58;9.83;68.39
69084;SHT31;56185;48.526;9.044;2023-03-18T00:30:24;9.90;68.00
69084;SHT31;56185;48.526;9.044;2023-03-18T00:32:49;9.73;68.57
69084;SHT31;56185;48.526;9.044;2023-03-18T00:35:14;9.77;68.19
69084;SHT31;56185;48.526;9.044;2023-03-18T00:37:40;9.77;68.68
69084;SHT31;56185;48.526;9.044;2023-03-18T00:40:08;9.62;69.29
69084;SHT31;56185;48.526;9.044;2023-03-18T00:42:36;9.56;69.65
69084;SHT31;56185;48.526;9.044;2023-03-18T00:45:03;9.57;69.82
69084;SHT31;56185;48.526;9.044;2023-03-18T00:47:28;9.60;69.65
69084;SHT31;56185;48.526;9.044;2023-03-18T00:49:54;9.53;70.12
69084;SHT31;56185;48.526;9.044;2023-03-18T00:52:19;9.50;70.42
69084;SHT31;56185;48.526;9.044;2023-03-18T00:54:44;9.42;71.06
69084;SHT31;56185;48.526;9.044;2023-03-18T00:57:09;9.46;71.05
69084;SHT31;56185;48.526;9.044;2023-03-18T00:59:35;9.40;70.68
69084;SHT31;56185;48.526;9.044;2023-03-18T01:02:00;9.53;70.27
69084;SHT31;56185;48.526;9.044;2023-03-18T01:04:25;9.52;70.06
69084;SHT31;56185;48.526;9.044;2023-03-18T01:06:50;9.49;69.99
69084;SHT31;56185;48.526;9.044;2023-03-18T01:09:16;9.56;69.62
69084;SHT31;56185;48.526;9.044;2023-03-18T01:11:41;9.44;69.72
69084;SHT31;56185;48.526;9.044;2023-03-18T01:14:07;9.49;69.66
69084;SHT31;56185;48.526;9.044;2023-03-18T01:16:33;9.52;69.73
69084;SHT31;56185;48.526;9.044;2023-03-18T01:18:58;9.47;69.65
69084;SHT31;56185;48.526;9.044;2023-03-18T01:21:24;9.53;69.07
69084;SHT31;56185;48.526;9.044;2023-03-18T01:23:49;9.54;69.19
69084;SHT31;56185;48.526;9.044;2023-03-18T01:26:15;9.54;69.25
69084;SHT31;56185;48.526;9.044;2023-03-18T01:28:40;9.42;69.77
69084;SHT31;56185;48.526;9.044;2023-03-18T01:31:05;9.36;70.44
69084;SHT31;56185;48.526;9.044;2023-03-18T01:33:31;9.39;70.32
69084;SHT31;56185;48.526;9.044;2023-03-18T01:35:58;9.35;70.98
69084;SHT31;56185;48.526;9.044;2023-03-18T01:38:25;9.19;70.92
69084;SHT31;56185;48.526;9.044;2023-03-18T01:40:50;9.25;70.75
69084;SHT31;56185;48.526;9.044;2023-03-18T01:43:22;9.42;69.84
69084;SHT31;56185;48.526;9.044;2023-03-18T01:45:52;9.56;69.42
69084;SHT31;56185;48.526;9.044;2023-03-18T01:48:20;9.53;69.11
69084;SHT31;56185;48.526;9.044;2023-03-18T01:50:49;9.46;69.38
69084;SHT31;56185;48.526;9.044;2023-03-18T01:53:17;9.50;69.36
69084;SHT31;56185;48.526;9.044;2023-03-18T01:55:44;9.38;69.79
69084;SHT31;56185;48.526;9.044;2023-03-18T01:58:26;9.39;69.86
69084;SHT31;56185;48.526;9.044;2023-03-18T02:01:13;9.35;68.89
69084;SHT31;56185;48.526;9.044;2023-03-18T02:03:41;9.33;69.14
69084;SHT31;56185;48.526;9.044;2023-03-18T02:06:06;9.18;69.88
69084;SHT31;56185;48.526;9.044;2023-03-18T02:08:32;9.02;70.82
69084;SHT31;56185;48.526;9.044;2023-03-18T02:10:58;8.92;71.15
69084;SHT31;56185;48.526;9.044;2023-03-18T02:13:23;8.81;71.55
69084;SHT31;56185;48.526;9.044;2023-03-18T02:15:56;8.88;71.07
69084;SHT31;56185;48.526;9.044;2023-03-18T02:18:33;8.85;71.10
69084;SHT31;56185;48.526;9.044;2023-03-18T02:21:21;8.68;71.76
69084;SHT31;56185;48.526;9.044;2023-03-18T02:24:08;8.85;70.83
69084;SHT31;56185;48.526;9.044;2023-03-18T02:26:45;8.74;72.34
69084;SHT31;56185;48.526;9.044;2023-03-18T02:29:14;8.82;71.59
69084;SHT31;56185;48.526;9.044;2023-03-18T02:31:41;8.81;71.83
69084;SHT31;56185;48.526;9.044;2023-03-18T02:34:08;8.94;71.40
69084;SHT31;56185;48.526;9.044;2023-03-18T02:36:34;8.88;71.55
69084;SHT31;56185;48.526;9.044;2023-03-18T02:38:59;8.92;71.43
69084;SHT31;56185;48.526;9.044;2023-03-18T02:41:28;8.84;70.82
69084;SHT31;56185;48.526;9.044;2023-03-18T02:43:54;8.46;71.28
69084;SHT31;56185;48.526;9.044;2023-03-18T02:46:27;8.57;69.45
69084;SHT31;56185;48.526;9.044;2023-03-18T02:48:53;8.84;69.77
69084;SHT31;56185;48.526;9.044;2023-03-18T02:51:19;8.89;70.11
69084;SHT31;56185;48.526;9.044;2023-03-18T02:53:44;8.97;70.03
69084;SHT31;56185;48.526;9.044;2023-03-18T02:56:10;8.94;68.69
69084;SHT31;56185;48.526;9.044;2023-03-18T02:58:36;8.92;67.81
69084;SHT31;56185;48.526;9.044;2023-03-18T03:01:03;8.87;68.13
69084;SHT31;56185;48.526;9.044;2023-03-18T03:03:28;9.05;68.54
69084;SHT31;56185;48.526;9.044;2023-03-18T03:05:54;9.10;68.19
69084;SHT31;56185;48.526;9.044;2023-03-18T03:08:19;9.00;69.21
69084;SHT31;56185;48.526;9.044;2023-03-18T03:10:44;8.85;69.94
69084;SHT31;56185;48.526;9.044;2023-03-18T03:13:10;8.87;70.01
69084;SHT31;56185;48.526;9.044;2023-03-18T03:15:36;8.82;69.95
69084;SHT31;56185;48.526;9.044;2023-03-18T03:18:02;8.61;70.78
69084;SHT31;56185;48.526;9.044;2023-03-18T03:20:28;8.50;71.78
69084;SHT31;56185;48.526;9.044;2023-03-18T03:22:53;8.56;70.55
69084;SHT31;56185;48.526;9.044;2023-03-18T03:25:18;8.59;70.32
69084;SHT31;56185;48.526;9.044;2023-03-18T03:27:44;8.63;70.38
69084;SHT31;56185;48.526;9.044;2023-03-18T03:30:11;8.50;71.29
69084;SHT31;56185;48.526;9.044;2023-03-18T03:32:36;8.46;71.21
69084;SHT31;56185;48.526;9.044;2023-03-18T03:35:02;8.43;71.31
69084;SHT31;56185;48.526;9.044;2023-03-18T03:37:27;8.44;71.74
69084;SHT31;56185;48.526;9.044;2023-03-18T03:39:52;8.47;70.83
69084;SHT31;56185;48.526;9.044;2023-03-18T03:42:18;8.33;70.84
69084;SHT31;56185;48.526;9.044;2023-03-18T03:44:44;8.26;71.01
69084;SHT31;56185;48.526;9.044;2023-03-18T03:47:09;8.25;71.32
69084;SHT31;56185;48.526;9.044;2023-03-18T03:49:34;8.16;71.93
69084;SHT31;56185;48.526;9.044;2023-03-18T03:51:59;8.12;72.13
69084;SHT31;56185;48.526;9.044;2023-03-18T03:54:25;7.99;72.59
69084;SHT31;56185;48.526;9.044;2023-03-18T03:56:50;8.10;72.39
69084;SHT31;56185;48.526;9.044;2023-03-18T03:59:17;8.10;72.55
69084;SHT31;56185;48.526;9.044;2023-03-18T04:01:42;8.07;72.59
69084;SHT31;56185;48.526;9.044;2023-03-18T04:04:07;8.17;71.17
69084;SHT31;56185;48.526;9.044;2023-03-18T04:06:32;8.10;71.89
69084;SHT31;56185;48.526;9.044;2023-03-18T04:08:58;7.95;72.51
69084;SHT31;56185;48.526;9.044;2023-03-18T04:11:23;8.01;72.65
69084;SHT31;56185;48.526;9.044;2023-03-18T04:13:48;8.02;72.85
69084;SHT31;56185;48.526;9.044;2023-03-18T04:16:13;7.88;72.78
69084;SHT31;56185;48.526;9.044;2023-03-18T04:18:39;7.92;72.59
69084;SHT31;56185;48.526;9.044;2023-03-18T04:21:05;7.88;72.81
69084;SHT31;56185;48.526;9.044;2023-03-18T04:23:30;7.84;72.69
69084;SHT31;56185;48.526;9.044;2023-03-18T04:25:55;7.86;72.48
69084;SHT31;56185;48.526;9.044;2023-03-18T04:28:21;7.72;73.29
69084;SHT31;56185;48.526;9.044;2023-03-18T04:30:47;7.67;73.80
69084;SHT31;56185;48.526;9.044;2023-03-18T04:33:12;7.78;72.92
69084;SHT31;56185;48.526;9.044;2023-03-18T04:35:38;7.58;73.36
69084;SHT31;56185;48.526;9.044;2023-03-18T04:38:03;7.55;73.53
69084;SHT31;56185;48.526;9.044;2023-03-18T04:40:28;7.61;73.64
69084;SHT31;56185;48.526;9.044;2023-03-18T04:42:54;7.60;73.16
69084;SHT31;56185;48.526;9.044;2023-03-18T04:45:19;7.58;73.10
69084;SHT31;56185;48.526;9.044;2023-03-18T04:47:44;7.51;73.69
69084;SHT31;56185;48.526;9.044;2023-03-18T04:50:10;7.44;73.74
69084;SHT31;56185;48.526;9.044;2023-03-18T04:52:37;7.33;74.82
69084;SHT31;56185;48.526;9.044;2023-03-18T04:55:04;7.46;72.86
69084;SHT31;56185;48.526;9.044;2023-03-18T04:57:29;7.53;72.64
69084;SHT31;56185;48.526;9.044;2023-03-18T04:59:54;7.41;72.78
69084;SHT31;56185;48.526;9.044;2023-03-18T05:02:20;7.22;73.33
69084;SHT31;56185;48.526;9.044;2023-03-18T05:04:45;7.24;73.21
69084;SHT31;56185;48.526;9.044;2023-03-18T05:07:14;7.22;73.59
69084;SHT31;56185;48.526;9.044;2023-03-18T05:09:40;7.26;73.53
69084;SHT31;56185;48.526;9.044;2023-03-18T05:12:08;7.23;73.33
69084;SHT31;56185;48.526;9.044;2023-03-18T05:14:35;7.16;73.63
69084;SHT31;56185;48.526;9.044;2023-03-18T05:17:01;7.07;74.49
69084;SHT31;56185;48.526;9.044;2023-03-18T05:19:26;7.09;74.70
69084;SHT31;56185;48.526;9.044;2023-03-18T05:21:51;7.07;74.69
69084;SHT31;56185;48.526;9.044;2023-03-18T05:24:16;6.89;75.12
69084;SHT31;56185;48.526;9.044;2023-03-18T05:26:42;7.00;74.88
69084;SHT31;56185;48.526;9.044;2023-03-18T05:29:07;6.92;74.91
69084;SHT31;56185;48.526;9.044;2023-03-18T05:31:32;6.86;74.87
69084;SHT31;56185;48.526;9.044;2023-03-18T05:33:57;6.74;75.18
69084;SHT31;56185;48.526;9.044;2023-03-18T05:36:23;6.58;75.77
69084;SHT31;56185;48.526;9.044;2023-03-18T05:38:48;6.59;76.33
69084;SHT31;56185;48.526;9.044;2023-03-18T05:41:13;6.64;75.66
69084;SHT31;56185;48.526;9.044;2023-03-18T05:43:39;6.61;75.36
69084;SHT31;56185;48.526;9.044;2023-03-18T05:46:04;6.62;75.31
69084;SHT31;56185;48.526;9.044;2023-03-18T05:48:29;6.76;75.35
69084;SHT31;56185;48.526;9.044;2023-03-18T05:50:54;6.46;76.34
69084;SHT31;56185;48.526;9.044;2023-03-18T05:53:20;6.42;76.44
69084;SHT31;56185;48.526;9.044;2023-03-18T05:55:45;6.46;75.86
69084;SHT31;56185;48.526;9.044;2023-03-18T05:58:10;6.45;76.30
69084;SHT31;56185;48.526;9.044;2023-03-18T06:00:36;6.48;75.94
69084;SHT31;56185;48.526;9.044;2023-03-18T06:03:01;6.41;76.20
69084;SHT31;56185;48.526;9.044;2023-03-18T06:05:27;6.34;76.39
69084;SHT31;56185;48.526;9.044;2023-03-18T06:07:52;6.38;75.74
69084;SHT31;56185;48.526;9.044;2023-03-18T06:10:18;6.48;75.64
69084;SHT31;56185;48.526;9.044;2023-03-18T06:12:43;6.48;75.55
69084;SHT31;56185;48.526;9.044;2023-03-18T06:15:10;6.59;75.33
69084;SHT31;56185;48.526;9.044;2023-03-18T06:17:38;6.44;75.91
69084;SHT31;56185;48.526;9.044;2023-03-18T06:20:05;6.45;75.84
69084;SHT31;56185;48.526;9.044;2023-03-18T06:22:30;6.44;76.14
69084;SHT31;56185;48.526;9.044;2023-03-18T06:24:56;6.31;76.45
69084;SHT31;56185;48.526;9.044;2023-03-18T06:27:21;6.45;76.11
69084;SHT31;56185;48.526;9.044;2023-03-18T06:29:47;6.54;75.86
69084;SHT31;56185;48.526;9.044;2023-03-18T06:32:13;6.48;75.73
69084;SHT31;56185;48.526;9.044;2023-03-18T06:34:38;6.62;74.98
69084;SHT31;56185;48.526;9.044;2023-03-18T06:37:04;6.48;76.11
69084;SHT31;56185;48.526;9.044;2023-03-18T06:39:29;6.49;75.80
69084;SHT31;56185;48.526;9.044;2023-03-18T06:41:55;6.54;76.00
69084;SHT31;56185;48.526;9.044;2023-03-18T06:44:21;6.52;75.86
69084;SHT31;56185;48.526;9.044;2023-03-18T06:46:46;6.62;74.59
69084;SHT31;56185;48.526;9.044;2023-03-18T06:49:11;6.62;74.19
69084;SHT31;56185;48.526;9.044;2023-03-18T06:51:37;6.86;74.19
69084;SHT31;56185;48.526;9.044;2023-03-18T06:54:03;6.85;74.07
69084;SHT31;56185;48.526;9.044;2023-03-18T06:56:28;6.68;75.11
69084;SHT31;56185;48.526;9.044;2023-03-18T06:58:53;6.76;74.64
69084;SHT31;56185;48.526;9.044;2023-03-18T07:01:19;6.83;74.90
69084;SHT31;56185;48.526;9.044;2023-03-18T07:03:44;6.89;74.73
69084;SHT31;56185;48.526;9.044;2023-03-18T07:06:09;6.99;74.41
69084;SHT31;56185;48.526;9.044;2023-03-18T07:08:35;7.27;73.52
69084;SHT31;56185;48.526;9.044;2023-03-18T07:11:00;7.51;72.54
69084;SHT31;56185;48.526;9.044;2023-03-18T07:13:25;7.65;72.58
69084;SHT31;56185;48.526;9.044;2023-03-18T07:15:51;7.77;71.49
69084;SHT31;56185;48.526;9.044;2023-03-18T07:18:16;7.88;71.48
69084;SHT31;56185;48.526;9.044;2023-03-18T07:20:41;7.92;71.71
69084;SHT31;56185;48.526;9.044;2023-03-18T07:23:07;7.81;71.96
69084;SHT31;56185;48.526;9.044;2023-03-18T07:25:32;8.01;71.15
69084;SHT31;56185;48.526;9.044;2023-03-18T07:27:58;8.09;71.54
69084;SHT31;56185;48.526;9.044;2023-03-18T07:30:23;8.17;71.28
69084;SHT31;56185;48.526;9.044;2023-03-18T07:32:49;8.22;70.75
69084;SHT31;56185;48.526;9.044;2023-03-18T07:35:14;8.33;70.70
69084;SHT31;56185;48.526;9.044;2023-03-18T07:37:41;8.46;70.13
69084;SHT31;56185;48.526;9.044;2023-03-18T07:40:08;8.54;69.72
69084;SHT31;56185;48.526;9.044;2023-03-18T07:42:34;8.67;69.02
69084;SHT31;56185;48.526;9.044;2023-03-18T07:44:59;8.82;68.90
69084;SHT31;56185;48.526;9.044;2023-03-18T07:47:24;8.91;68.16
69084;SHT31;56185;48.526;9.044;2023-03-18T07:49:50;9.00;67.37
69084;SHT31;56185;48.526;9.044;2023-03-18T07:52:15;9.02;67.32
69084;SHT31;56185;48.526;9.044;2023-03-18T07:54:40;9.19;66.96
69084;SHT31;56185;48.526;9.044;2023-03-18T07:57:05;9.29;66.47
69084;SHT31;56185;48.526;9.044;2023-03-18T07:59:31;9.43;66.41
69084;SHT31;56185;48.526;9.044;2023-03-18T08:01:56;9.50;66.39
69084;SHT31;56185;48.526;9.044;2023-03-18T08:04:21;9.67;66.33
69084;SHT31;56185;48.526;9.044;2023-03-18T08:06:47;9.79;65.70
69084;SHT31;56185;48.526;9.044;2023-03-18T08:09:12;9.94;65.77
69084;SHT31;56185;48.526;9.044;2023-03-18T08:11:37;10.04;65.60
69084;SHT31;56185;48.526;9.044;2023-03-18T08:14:03;10.18;65.00
69084;SHT31;56185;48.526;9.044;2023-03-18T08:16:28;10.31;64.16
69084;SHT31;56185;48.526;9.044;2023-03-18T08:18:53;10.49;64.27
69084;SHT31;56185;48.526;9.044;2023-03-18T08:21:19;10.58;62.61
69084;SHT31;56185;48.526;9.044;2023-03-18T08:23:44;10.77;63.23
69084;SHT31;56185;48.526;9.044;2023-03-18T08:26:10;10.88;62.43
69084;SHT31;56185;48.526;9.044;2023-03-18T08:28:35;11.00;62.59
69084;SHT31;56185;48.526;9.044;2023-03-18T08:31:01;11.20;61.20
69084;SHT31;56185;48.526;9.044;2023-03-18T08:33:27;11.44;61.22
69084;SHT31;56185;48.526;9.044;2023-03-18T08:35:54;11.52;61.96
69084;SHT31;56185;48.526;9.044;2023-03-18T08:38:19;11.74;60.33
69084;SHT31;56185;48.526;9.044;2023-03-18T08:40:44;11.96;58.62
69084;SHT31;56185;48.526;9.044;2023-03-18T08:43:09;12.03;57.67
69084;SHT31;56185;48.526;9.044;2023-03-18T08:45:35;12.18;56.55
69084;SHT31;56185;48.526;9.044;2023-03-18T08:48:03;12.30;56.11
69084;SHT31;56185;48.526;9.044;2023-03-18T08:50:28;12.29;56.10
69084;SHT31;56185;48.526;9.044;2023-03-18T08:52:58;12.50;55.91
69084;SHT31;56185;48.526;9.044;2023-03-18T08:55:28;12.65;55.62
69084;SHT31;56185;48.526;9.044;2023-03-18T08:57:54;12.77;55.10
69084;SHT31;56185;48.526;9.044;2023-03-18T09:00:22;13.01;54.28
69084;SHT31;56185;48.526;9.044;2023-03-18T09:02:47;13.19;53.23
69084;SHT31;56185;48.526;9.044;2023-03-18T09:05:13;13.36;54.30
69084;SHT31;56185;48.526;9.044;2023-03-18T09:07:38;13.59;53.40
69084;SHT31;56185;48.526;9.044;2023-03-18T09:10:04;13.62;52.03
69084;SHT31;56185;48.526;9.044;2023-03-18T09:12:29;13.70;50.43
69084;SHT31;56185;48.526;9.044;2023-03-18T09:14:55;13.87;50.77
69084;SHT31;56185;48.526;9.044;2023-03-18T09:17:20;13.96;51.41
69084;SHT31;56185;48.526;9.044;2023-03-18T09:19:45;14.03;50.73
69084;SHT31;56185;48.526;9.044;2023-03-18T09:22:10;14.08;49.94
69084;SHT31;56185;48.526;9.044;2023-03-18T09:24:36;14.17;49.87
69084;SHT31;56185;48.526;9.044;2023-03-18T09:27:01;14.31;48.37
69084;SHT31;56185;48.526;9.044;2023-03-18T09:29:26;14.55;48.64
69084;SHT31;56185;48.526;9.044;2023-03-18T09:31:52;14.59;46.13
69084;SHT31;56185;48.526;9.044;2023-03-18T09:34:17;14.87;45.83
69084;SHT31;56185;48.526;9.044;2023-03-18T09:36:43;15.03;44.94
69084;SHT31;56185;48.526;9.044;2023-03-18T09:39:08;15.22;42.36
69084;SHT31;56185;48.526;9.044;2023-03-18T09:41:45;15.28;43.80
69084;SHT31;56185;48.526;9.044;2023-03-18T09:44:30;15.43;43.14
69084;SHT31;56185;48.526;9.044;2023-03-18T09:55:04;15.93;40.95
69084;SHT31;56185;48.526;9.044;2023-03-18T09:57:35;15.98;40.71
69084;SHT31;56185;48.526;9.044;2023-03-18T10:00:15;16.10;39.46
69084;SHT31;56185;48.526;9.044;2023-03-18T10:05:39;16.34;39.01
69084;SHT31;56185;48.526;9.044;2023-03-18T10:08:17;16.46;40.52
69084;SHT31;56185;48.526;9.044;2023-03-18T10:10:46;16.20;39.19
69084;SHT31;56185;48.526;9.044;2023-03-18T10:13:20;16.34;39.65
69084;SHT31;56185;48.526;9.044;2023-03-18T10:15:49;16.53;39.67
69084;SHT31;56185;48.526;9.044;2023-03-18T10:18:37;16.53;40.49
69084;SHT31;56185;48.526;9.044;2023-03-18T10:26:47;16.68;40.06
69084;SHT31;56185;48.526;9.044;2023-03-18T10:37:51;16.91;39.62
69084;SHT31;56185;48.526;9.044;2023-03-18T10:40:20;16.96;37.30
69084;SHT31;56185;48.526;9.044;2023-03-18T10:42:49;17.01;36.90
69084;SHT31;56185;48.526;9.044;2023-03-18T10:45:26;17.15;38.37
69084;SHT31;56185;48.526;9.044;2023-03-18T10:47:57;17.22;37.72
69084;SHT31;56185;48.526;9.044;2023-03-18T10:50:31;17.30;36.82
69084;SHT31;56185;48.526;9.044;2023-03-18T10:53:10;17.39;36.79
69084;SHT31;56185;48.526;9.044;2023-03-18T10:56:09;17.32;36.48
69084;SHT31;56185;48.526;9.044;2023-03-18T10:58:33;17.67;36.12
69084;SHT31;56185;48.526;9.044;2023-03-18T11:00:59;17.83;36.16
69084;SHT31;56185;48.526;9.044;2023-03-18T11:03:44;17.89;35.44
69084;SHT31;56185;48.526;9.044;2023-03-18T11:06:16;17.98;35.01
69084;SHT31;56185;48.526;9.044;2023-03-18T11:08:46;18.12;33.80
69084;SHT31;56185;48.526;9.044;2023-03-18T11:13:55;18.47;33.65
69084;SHT31;56185;48.526;9.044;2023-03-18T11:16:45;18.51;33.51
69084;SHT31;56185;48.526;9.044;2023-03-18T11:19:39;18.49;33.22
69084;SHT31;56185;48.526;9.044;2023-03-18T11:22:22;18.65;32.76
69084;SHT31;56185;48.526;9.044;2023-03-18T11:25:20;18.96;32.74
69084;SHT31;56185;48.526;9.044;2023-03-18T11:27:48;18.99;33.27
69084;SHT31;56185;48.526;9.044;2023-03-18T11:30:17;19.27;33.12
69084;SHT31;56185;48.526;9.044;2023-03-18T11:32:57;19.18;32.65
69084;SHT31;56185;48.526;9.044;2023-03-18T11:38:21;19.30;33.42
69084;SHT31;56185;48.526;9.044;2023-03-18T11:40:48;19.24;31.18
69084;SHT31;56185;48.526;9.044;2023-03-18T11:43:20;19.27;30.65
69084;SHT31;56185;48.526;9.044;2023-03-18T11:46:11;19.44;31.29
69084;SHT31;56185;48.526;9.044;2023-03-18T11:48:39;19.51;31.04
69084;SHT31;56185;48.526;9.044;2023-03-18T11:51:12;19.53;29.35
69084;SHT31;56185;48.526;9.044;2023-03-18T11:56:32;19.86;31.34
69084;SHT31;56185;48.526;9.044;2023-03-18T12:05:03;19.92;30.11
69084;SHT31;56185;48.526;9.044;2023-03-18T12:10:12;20.27;30.68
69084;SHT31;56185;48.526;9.044;2023-03-18T12:12:57;20.43;29.39
69084;SHT31;56185;48.526;9.044;2023-03-18T12:15:34;20.47;28.96
69084;SHT31;56185;48.526;9.044;2023-03-18T12:21:04;20.40;28.71
69084;SHT31;56185;48.526;9.044;2023-03-18T12:32:30;20.34;28.26
69084;SHT31;56185;48.526;9.044;2023-03-18T12:45:24;20.98;28.66
69084;SHT31;56185;48.526;9.044;2023-03-18T12:47:58;20.71;28.61
69084;SHT31;56185;48.526;9.044;2023-03-18T12:50:34;20.71;27.67
69084;SHT31;56185;48.526;9.044;2023-03-18T12:53:06;20.83;27.78
69084;SHT31;56185;48.526;9.044;2023-03-18T12:55:39;21.19;27.94
69084;SHT31;56185;48.526;9.044;2023-03-18T12:58:27;21.36;27.25
69084;SHT31;56185;48.526;9.044;2023-03-18T13:00:57;21.41;28.41
69084;SHT31;56185;48.526;9.044;2023-03-18T13:06:01;21.31;28.23
69084;SHT31;56185;48.526;9.044;2023-03-18T13:14:02;21.09;28.07
69084;SHT31;56185;48.526;9.044;2023-03-18T13:16:30;20.70;27.80
69084;SHT31;56185;48.526;9.044;2023-03-18T13:18:56;20.39;28.16
69084;SHT31;56185;48.526;9.044;2023-03-18T13:21:28;20.73;28.51
69084;SHT31;56185;48.526;9.044;2023-03-18T13:35:31;21.28;27.86
69084;SHT31;56185;48.526;9.044;2023-03-18T13:43:28;21.80;26.47
69084;SHT31;56185;48.526;9.044;2023-03-18T13:45:57;22.00;27.53
69084;SHT31;56185;48.526;9.044;2023-03-18T13:48:31;21.89;27.57
69084;SHT31;56185;48.526;9.044;2023-03-18T13:50:58;21.73;28.46
69084;SHT31;56185;48.526;9.044;2023-03-18T13:53:33;21.60;27.82
69084;SHT31;56185;48.526;9.044;2023-03-18T13:56:05;21.31;27.22
69084;SHT31;56185;48.526;9.044;2023-03-18T13:58:48;21.28;28.38
69084;SHT31;56185;48.526;9.044;2023-03-18T14:01:25;21.29;28.28
69084;SHT31;56185;48.526;9.044;2023-03-18T14:03:54;21.32;27.24
69084;SHT31;56185;48.526;9.044;2023-03-18T14:08:50;21.11;28.58
69084;SHT31;56185;48.526;9.044;2023-03-18T14:13:58;20.47;28.20
69084;SHT31;56185;48.526;9.044;2023-03-18T14:16:53;20.66;30.15
69084;SHT31;56185;48.526;9.044;2023-03-18T14:19:25;20.47;31.10
69084;SHT31;56185;48.526;9.044;2023-03-18T14:21:53;20.51;29.82
69084;SHT31;56185;48.526;9.044;2023-03-18T14:27:13;19.79;29.78
69084;SHT31;56185;48.526;9.044;2023-03-18T14:29:43;19.96;31.21
69084;SHT31;56185;48.526;9.044;2023-03-18T14:32:38;20.05;31.92
69084;SHT31;56185;48.526;9.044;2023-03-18T14:37:59;20.16;31.33
69084;SHT31;56185;48.526;9.044;2023-03-18T14:40:25;20.26;31.29
69084;SHT31;56185;48.526;9.044;2023-03-18T14:43:10;20.32;29.69
69084;SHT31;56185;48.526;9.044;2023-03-18T14:45:41;20.25;30.04
69084;SHT31;56185;48.526;9.044;2023-03-18T14:48:30;20.33;29.45
69084;SHT31;56185;48.526;9.044;2023-03-18T14:50:59;20.19;30.21
69084;SHT31;56185;48.526;9.044;2023-03-18T14:56:03;20.27;30.68
69084;SHT31;56185;48.526;9.044;2023-03-18T14:58:29;20.29;30.35
69084;SHT31;56185;48.526;9.044;2023-03-18T15:01:08;20.34;29.71
69084;SHT31;56185;48.526;9.044;2023-03-18T15:03:37;20.32;30.84
69084;SHT31;56185;48.526;9.044;2023-03-18T15:06:05;20.33;30.36
69084;SHT31;56185;48.526;9.044;2023-03-18T15:08:36;20.26;30.66
69084;SHT31;56185;48.526;9.044;2023-03-18T15:11:02;20.22;31.04
69084;SHT31;56185;48.526;9.044;2023-03-18T15:13:28;20.25;30.73
69084;SHT31;56185;48.526;9.044;2023-03-18T15:15:54;20.17;30.14
69084;SHT31;56185;48.526;9.044;2023-03-18T15:20:54;20.43;30.59
69084;SHT31;56185;48.526;9.044;2023-03-18T15:23:30;20.51;31.78
69084;SHT31;56185;48.526;9.044;2023-03-18T15:25:55;20.37;29.99
69084;SHT31;56185;48.526;9.044;2023-03-18T15:28:22;20.37;30.61
69084;SHT31;56185;48.526;9.044;2023-03-18T15:30:53;20.34;30.84
69084;SHT31;56185;48.526;9.044;2023-03-18T15:33:22;20.33;31.30
69084;SHT31;56185;48.526;9.044;2023-03-18T15:36:03;20.36;30.24
69084;SHT31;56185;48.526;9.044;2023-03-18T15:38:29;20.22;28.87
69084;SHT31;56185;48.526;9.044;2023-03-18T15:41:09;20.16;30.72
69084;SHT31;56185;48.526;9.044;2023-03-18T15:46:22;20.19;29.64
69084;SHT31;56185;48.526;9.044;2023-03-18T15:48:51;20.16;30.24
69084;SHT31;56185;48.526;9.044;2023-03-18T15:51:26;20.09;31.82
69084;SHT31;56185;48.526;9.044;2023-03-18T15:54:02;19.81;29.98
69084;SHT31;56185;48.526;9.044;2023-03-18T15:56:32;19.98;29.76
69084;SHT31;56185;48.526;9.044;2023-03-18T15:59:05;20.00;31.01
69084;SHT31;56185;48.526;9.044;2023-03-18T16:01:36;19.93;31.80
69084;SHT31;56185;48.526;9.044;2023-03-18T16:04:04;19.75;30.11
69084;SHT31;56185;48.526;9.044;2023-03-18T16:06:30;19.81;31.32
69084;SHT31;56185;48.526;9.044;2023-03-18T16:08:56;19.74;32.97
69084;SHT31;56185;48.526;9.044;2023-03-18T16:11:21;19.79;32.52
69084;SHT31;56185;48.526;9.044;2023-03-18T16:13:46;19.82;31.48
69084;SHT31;56185;48.526;9.044;2023-03-18T16:16:17;19.75;31.26
69084;SHT31;56185;48.526;9.044;2023-03-18T16:18:46;19.71;31.90
69084;SHT31;56185;48.526;9.044;2023-03-18T16:21:12;19.65;30.75
69084;SHT31;56185;48.526;9.044;2023-03-18T16:23:40;19.54;30.94
69084;SHT31;56185;48.526;9.044;2023-03-18T16:26:11;19.48;32.94
69084;SHT31;56185;48.526;9.044;2023-03-18T16:28:37;19.48;31.66
69084;SHT31;56185;48.526;9.044;2023-03-18T16:31:02;19.38;33.21
69084;SHT31;56185;48.526;9.044;2023-03-18T16:33:28;19.18;32.67
69084;SHT31;56185;48.526;9.044;2023-03-18T16:36:00;19.00;32.92
69084;SHT31;56185;48.526;9.044;2023-03-18T16:38:27;18.92;35.03
69084;SHT31;56185;48.526;9.044;2023-03-18T16:40:52;18.73;35.66
69084;SHT31;56185;48.526;9.044;2023-03-18T16:43:22;18.60;35.65
69084;SHT31;56185;48.526;9.044;2023-03-18T16:45:49;18.63;35.53
69084;SHT31;56185;48.526;9.044;2023-03-18T16:48:17;18.47;36.48
69084;SHT31;56185;48.526;9.044;2023-03-18T16:50:45;18.31;34.48
69084;SHT31;56185;48.526;9.044;2023-03-18T16:55:44;18.04;37.16
69084;SHT31;56185;48.526;9.044;2023-03-18T16:58:12;17.97;36.12
69084;SHT31;56185;48.526;9.044;2023-03-18T17:00:38;17.81;37.69
69084;SHT31;56185;48.526;9.044;2023-03-18T17:03:03;17.70;37.25
69084;SHT31;56185;48.526;9.044;2023-03-18T17:05:29;17.69;36.47
69084;SHT31;56185;48.526;9.044;2023-03-18T17:07:54;17.59;38.40
69084;SHT31;56185;48.526;9.044;2023-03-18T17:10:23;17.43;39.79
69084;SHT31;56185;48.526;9.044;2023-03-18T17:13:02;17.46;40.21
69084;SHT31;56185;48.526;9.044;2023-03-18T17:15:31;17.28;41.05
69084;SHT31;56185;48.526;9.044;2023-03-18T17:17:57;17.19;41.84
69084;SHT31;56185;48.526;9.044;2023-03-18T17:20:27;17.11;42.18
69084;SHT31;56185;48.526;9.044;2023-03-18T17:22:53;17.00;42.95
69084;SHT31;56185;48.526;9.044;2023-03-18T17:25:18;16.87;43.27
69084;SHT31;56185;48.526;9.044;2023-03-18T17:28:06;16.77;43.54
69084;SHT31;56185;48.526;9.044;2023-03-18T17:30:34;16.78;44.52
69084;SHT31;56185;48.526;9.044;2023-03-18T17:33:01;16.75;44.92
69084;SHT31;56185;48.526;9.044;2023-03-18T17:35:26;16.60;44.88
69084;SHT31;56185;48.526;9.044;2023-03-18T17:37:51;16.59;45.53